createdAt,value
2022-12-14T00:01:49.442Z,8.30
2022-12-14T00:04:17.888Z,8.30
2022-12-14T00:06:46.851Z,8.30
2022-12-14T00:09:15.230Z,8.20
2022-12-14T00:11:43.226Z,8.20
2022-12-14T00:14:11.185Z,8.20
2022-12-14T00:16:39.063Z,8.30
2022-12-14T00:19:07.081Z,8.30
2022-12-14T00:21:35.239Z,8.30
2022-12-14T00:24:04.423Z,8.20
2022-12-14T00:26:33.245Z,8.30
2022-12-14T00:29:02.371Z,8.30
2022-12-14T00:31:31.605Z,8.40
2022-12-14T00:34:01.467Z,8.40
2022-12-14T00:36:31.747Z,8.40
2022-12-14T00:38:59.923Z,8.40
2022-12-14T00:41:27.928Z,8.40
2022-12-14T00:43:56.273Z,8.40
2022-12-14T00:46:25.311Z,8.50
2022-12-14T00:48:53.350Z,8.50
2022-12-14T00:51:21.850Z,8.50
2022-12-14T00:53:50.416Z,8.60
2022-12-14T00:56:19.208Z,8.60
2022-12-14T00:58:52.780Z,8.50
2022-12-14T01:01:22.568Z,8.60
2022-12-14T01:03:51.084Z,8.60
2022-12-14T01:06:21.828Z,8.60
2022-12-14T01:08:50.697Z,8.60
2022-12-14T01:11:18.835Z,8.60
2022-12-14T01:13:49.373Z,8.60
2022-12-14T01:16:18.344Z,8.60
2022-12-14T01:18:46.529Z,8.70
2022-12-14T01:21:19.422Z,8.70
2022-12-14T01:23:51.315Z,8.60
2022-12-14T01:26:19.650Z,8.60
2022-12-14T01:28:53.697Z,8.70
2022-12-14T01:31:28.748Z,8.70
2022-12-14T01:33:57.387Z,8.70
2022-12-14T01:36:30.926Z,8.70
2022-12-14T01:39:06.231Z,8.70
2022-12-14T01:46:50.999Z,8.70
2022-12-14T01:49:40.188Z,8.80
2022-12-14T01:52:25.976Z,8.70
2022-12-14T01:55:03.182Z,8.70
2022-12-14T01:57:49.845Z,8.60
2022-12-14T02:00:18.256Z,8.60
2022-12-14T02:03:08.381Z,8.70
2022-12-14T02:05:41.517Z,8.70
2022-12-14T02:08:12.080Z,8.70
2022-12-14T02:10:40.257Z,8.60
2022-12-14T02:13:14.973Z,8.60
2022-12-14T02:15:44.377Z,8.60
2022-12-14T02:18:33.174Z,8.50
2022-12-14T02:21:10.930Z,8.50
2022-12-14T02:24:03.333Z,8.50
2022-12-14T02:27:22.242Z,8.50
2022-12-14T02:29:56.297Z,8.50
2022-12-14T02:32:57.265Z,8.50
2022-12-14T02:35:40.318Z,8.50
2022-12-14T02:38:20.011Z,8.60
2022-12-14T02:41:07.850Z,8.50
2022-12-14T02:43:51.523Z,8.50
2022-12-14T02:46:28.173Z,8.50
2022-12-14T02:48:59.075Z,8.50
2022-12-14T02:51:36.454Z,8.50
2022-12-14T02:54:17.081Z,8.50
2022-12-14T02:56:53.354Z,8.60
2022-12-14T02:59:23.619Z,8.70
2022-12-14T03:01:53.007Z,8.70
2022-12-14T03:04:22.240Z,8.60
2022-12-14T03:07:02.778Z,8.60
2022-12-14T03:09:32.482Z,8.60
2022-12-14T03:12:13.636Z,8.50
2022-12-14T03:14:48.332Z,8.50
2022-12-14T03:17:28.184Z,8.50
2022-12-14T03:20:20.734Z,8.50
2022-12-14T03:23:00.297Z,8.50
2022-12-14T03:25:52.101Z,8.50
2022-12-14T03:28:45.854Z,8.50
2022-12-14T03:31:40.001Z,8.40
2022-12-14T03:34:14.344Z,8.40
2022-12-14T03:36:48.805Z,8.40
2022-12-14T03:39:25.701Z,8.40
2022-12-14T03:42:20.124Z,8.40
2022-12-14T03:45:18.218Z,8.40
2022-12-14T03:48:04.559Z,8.40
2022-12-14T03:50:45.902Z,8.40
2022-12-14T03:53:30.809Z,8.40
2022-12-14T03:56:09.708Z,8.40
2022-12-14T03:58:57.293Z,8.40
2022-12-14T04:01:53.562Z,8.40
2022-12-14T04:04:47.790Z,8.40
2022-12-14T04:07:26.310Z,8.50
2022-12-14T04:10:04.633Z,8.40
2022-12-14T04:12:57.808Z,8.40
2022-12-14T04:15:50.199Z,8.40
2022-12-14T04:19:00.532Z,8.40
2022-12-14T04:21:48.023Z,8.40
2022-12-14T04:25:07.634Z,8.40
2022-12-14T04:27:44.659Z,8.40
2022-12-14T04:30:14.543Z,8.40
2022-12-14T04:32:58.299Z,8.40
2022-12-14T04:35:32.006Z,8.30
2022-12-14T04:38:35.169Z,8.40
2022-12-14T04:41:09.538Z,8.40
2022-12-14T04:43:45.067Z,8.40
2022-12-14T04:46:25.158Z,8.40
2022-12-14T04:49:17.158Z,8.40
2022-12-14T04:51:50.894Z,8.30
2022-12-14T04:54:24.869Z,8.30
2022-12-14T04:57:18.787Z,8.40
2022-12-14T04:59:49.367Z,8.40
2022-12-14T05:02:34.348Z,8.40
2022-12-14T05:05:11.992Z,8.40
2022-12-14T05:08:17.799Z,8.50
2022-12-14T05:11:05.233Z,8.50
2022-12-14T05:13:48.870Z,8.50
2022-12-14T05:16:22.526Z,8.50
2022-12-14T05:18:51.103Z,8.50
2022-12-14T05:21:38.273Z,8.50
2022-12-14T05:24:07.216Z,8.40
2022-12-14T05:26:35.936Z,8.50
2022-12-14T05:29:03.909Z,8.50
2022-12-14T05:31:32.725Z,8.50
2022-12-14T05:34:00.603Z,8.50
2022-12-14T05:36:29.184Z,8.50
2022-12-14T05:38:57.764Z,8.50
2022-12-14T05:41:25.987Z,8.50
2022-12-14T05:43:54.461Z,8.50
2022-12-14T05:46:47.441Z,8.50
2022-12-14T05:49:15.538Z,8.50
2022-12-14T05:51:44.125Z,8.50
2022-12-14T05:54:12.035Z,8.50
2022-12-14T05:56:41.095Z,8.50
2022-12-14T05:59:15.533Z,8.50
2022-12-14T06:01:45.717Z,8.60
2022-12-14T06:04:18.558Z,8.60
2022-12-14T06:06:47.124Z,8.70
2022-12-14T06:09:16.813Z,8.60
2022-12-14T06:11:46.081Z,8.60
2022-12-14T06:14:14.538Z,8.60
2022-12-14T06:16:44.688Z,8.60
2022-12-14T06:19:14.405Z,8.60
2022-12-14T06:21:43.735Z,8.60
2022-12-14T06:24:13.872Z,8.70
2022-12-14T06:26:42.804Z,8.70
2022-12-14T06:29:16.598Z,8.80
2022-12-14T06:31:44.619Z,8.80
2022-12-14T06:34:13.586Z,8.80
2022-12-14T06:36:43.624Z,8.80
2022-12-14T06:39:14.439Z,8.80
2022-12-14T06:41:43.169Z,8.90
2022-12-14T06:44:14.459Z,8.90
2022-12-14T06:46:43.091Z,8.90
2022-12-14T06:49:16.877Z,8.90
2022-12-14T06:51:45.296Z,8.90
2022-12-14T06:54:13.944Z,8.90
2022-12-14T06:56:44.351Z,8.90
2022-12-14T06:59:13.531Z,9.00
2022-12-14T07:01:42.595Z,9.00
2022-12-14T07:04:11.352Z,9.00
2022-12-14T07:06:41.201Z,9.00
2022-12-14T07:09:13.099Z,9.00
2022-12-14T07:11:41.603Z,9.10
2022-12-14T07:14:17.470Z,9.10
2022-12-14T07:16:48.519Z,9.00
2022-12-14T07:19:18.315Z,9.00
2022-12-14T07:21:46.386Z,8.90
2022-12-14T07:24:14.693Z,8.90
2022-12-14T07:26:42.639Z,8.90
2022-12-14T07:29:12.330Z,8.90
2022-12-14T07:31:40.602Z,8.90
2022-12-14T07:34:12.788Z,8.90
2022-12-14T07:36:41.032Z,9.00
2022-12-14T07:39:16.041Z,9.10
2022-12-14T07:41:46.023Z,9.10
2022-12-14T07:44:24.339Z,9.10
2022-12-14T07:46:54.261Z,9.20
2022-12-14T07:49:22.321Z,9.20
2022-12-14T07:51:52.395Z,9.20
2022-12-14T07:54:21.334Z,9.20
2022-12-14T07:56:51.071Z,9.20
2022-12-14T07:59:19.510Z,9.30
2022-12-14T08:01:47.640Z,9.30
2022-12-14T08:04:18.681Z,9.30
2022-12-14T08:06:47.830Z,9.40
2022-12-14T08:09:17.462Z,9.40
2022-12-14T08:11:45.486Z,9.50
2022-12-14T08:14:17.536Z,9.50
2022-12-14T08:16:47.166Z,9.50
2022-12-14T08:19:17.091Z,9.50
2022-12-14T08:21:46.146Z,9.40
2022-12-14T08:24:17.120Z,9.40
2022-12-14T08:26:49.327Z,9.40
2022-12-14T08:29:19.117Z,9.50
2022-12-14T08:31:47.274Z,9.50
2022-12-14T08:34:22.033Z,9.50
2022-12-14T08:36:51.481Z,9.60
2022-12-14T08:39:20.242Z,9.60
2022-12-14T08:41:48.325Z,9.70
2022-12-14T08:44:17.601Z,9.80
2022-12-14T08:46:46.020Z,9.80
2022-12-14T08:49:15.182Z,9.80
2022-12-14T08:51:43.465Z,9.80
2022-12-14T08:54:11.518Z,9.90
2022-12-14T08:56:39.663Z,9.90
2022-12-14T08:59:08.509Z,9.90
2022-12-14T09:01:36.545Z,9.90
2022-12-14T09:04:07.966Z,9.90
2022-12-14T09:06:39.287Z,9.90
2022-12-14T09:09:15.692Z,9.90
2022-12-14T09:11:45.629Z,10.00
2022-12-14T09:14:14.138Z,10.00
2022-12-14T09:16:42.778Z,10.00
2022-12-14T09:19:11.318Z,9.90
2022-12-14T09:21:39.992Z,10.00
2022-12-14T09:24:18.271Z,9.90
2022-12-14T09:26:47.595Z,10.00
2022-12-14T09:29:17.588Z,9.90
2022-12-14T09:31:45.769Z,9.90
2022-12-14T09:34:14.495Z,9.90
2022-12-14T09:36:43.241Z,9.90
2022-12-14T09:39:14.958Z,9.90
2022-12-14T09:41:50.699Z,9.90
2022-12-14T09:44:25.102Z,9.90
2022-12-14T09:47:15.932Z,9.90
2022-12-14T09:49:51.635Z,9.90
2022-12-14T09:52:24.158Z,10.00
2022-12-14T09:54:55.101Z,10.00
2022-12-14T09:57:33.532Z,10.00
2022-12-14T10:00:01.973Z,10.00
2022-12-14T10:02:43.926Z,10.00
2022-12-14T10:05:30.145Z,10.10
2022-12-14T10:08:23.308Z,10.10
2022-12-14T10:11:03.632Z,10.10
2022-12-14T10:14:08.207Z,10.10
2022-12-14T10:16:59.233Z,10.20
2022-12-14T10:19:42.697Z,10.20
2022-12-14T10:22:12.434Z,10.20
2022-12-14T10:24:54.995Z,10.20
2022-12-14T10:27:25.603Z,10.30
2022-12-14T10:29:59.689Z,10.30
2022-12-14T10:32:34.488Z,10.30
2022-12-14T10:35:38.841Z,10.30
2022-12-14T10:38:21.236Z,10.30
2022-12-14T10:40:50.762Z,10.40
2022-12-14T10:43:23.965Z,10.40
2022-12-14T10:46:33.380Z,10.40
2022-12-14T10:49:17.785Z,10.50
2022-12-14T10:51:54.773Z,10.50
2022-12-14T10:54:30.685Z,10.50
2022-12-14T10:56:58.757Z,10.50
2022-12-14T10:59:38.786Z,10.50
2022-12-14T11:02:17.253Z,10.50
2022-12-14T11:04:53.150Z,10.50
2022-12-14T11:07:27.785Z,10.50
2022-12-14T11:10:22.496Z,10.50
2022-12-14T11:13:20.748Z,10.60
2022-12-14T11:15:53.065Z,10.60
2022-12-14T11:18:31.524Z,10.60
2022-12-14T11:21:03.391Z,10.60
2022-12-14T11:23:38.232Z,10.60
2022-12-14T11:26:32.887Z,10.60
2022-12-14T11:29:03.959Z,10.60
2022-12-14T11:31:45.867Z,10.60
2022-12-14T11:34:37.938Z,10.60
2022-12-14T11:37:23.013Z,10.60
2022-12-14T11:39:54.359Z,10.60
2022-12-14T11:42:23.412Z,10.60
2022-12-14T11:44:52.305Z,10.60
2022-12-14T11:47:29.253Z,10.50
2022-12-14T11:49:57.996Z,10.40
2022-12-14T11:52:47.279Z,10.60
2022-12-14T11:55:26.756Z,10.60
2022-12-14T11:57:59.451Z,10.60
2022-12-14T12:00:49.799Z,10.60
2022-12-14T12:03:26.610Z,10.60
2022-12-14T12:06:07.800Z,10.60
2022-12-14T12:08:38.249Z,10.60
2022-12-14T12:11:28.942Z,10.70
2022-12-14T12:14:04.118Z,10.70
2022-12-14T12:16:33.368Z,10.70
2022-12-14T12:19:11.670Z,10.60
2022-12-14T12:21:45.037Z,10.60
2022-12-14T12:25:08.324Z,10.60
2022-12-14T12:27:31.918Z,10.70
2022-12-14T12:30:14.177Z,10.70
2022-12-14T12:32:49.964Z,10.70
2022-12-14T12:35:30.367Z,10.80
2022-12-14T12:38:10.029Z,10.80
2022-12-14T12:40:54.548Z,10.80
2022-12-14T12:43:30.441Z,10.80
2022-12-14T12:46:19.025Z,10.80
2022-12-14T12:48:57.870Z,10.80
2022-12-14T12:51:31.231Z,10.80
2022-12-14T12:54:46.081Z,10.90
2022-12-14T12:57:15.757Z,10.90
2022-12-14T12:59:48.551Z,10.90
2022-12-14T13:02:29.430Z,10.90
2022-12-14T13:05:10.852Z,10.90
2022-12-14T13:08:24.029Z,10.90
2022-12-14T13:11:24.446Z,11.00
2022-12-14T13:13:47.014Z,10.90
2022-12-14T13:16:37.852Z,10.90
2022-12-14T13:19:48.059Z,10.90
2022-12-14T13:22:05.885Z,10.90
2022-12-14T13:24:37.097Z,10.90
2022-12-14T13:27:17.927Z,10.90
2022-12-14T13:30:23.566Z,11.00
2022-12-14T13:33:17.399Z,11.00
2022-12-14T13:36:15.996Z,11.10
2022-12-14T13:38:50.808Z,11.10
2022-12-14T13:41:42.078Z,11.10
2022-12-14T13:44:41.887Z,11.10
2022-12-14T13:47:17.865Z,11.00
2022-12-14T13:50:26.960Z,11.10
2022-12-14T13:52:46.804Z,11.10
2022-12-14T13:55:35.479Z,11.10
2022-12-14T13:58:21.032Z,11.10
2022-12-14T14:00:56.119Z,11.20
2022-12-14T14:03:36.267Z,11.20
2022-12-14T14:06:12.540Z,11.20
2022-12-14T14:09:03.340Z,11.20
2022-12-14T14:11:44.025Z,11.20
2022-12-14T14:14:44.765Z,11.20
2022-12-14T14:17:43.622Z,11.30
2022-12-14T14:20:30.515Z,11.20
2022-12-14T14:23:16.182Z,11.30
2022-12-14T14:25:51.695Z,11.30
2022-12-14T14:28:23.171Z,11.30
2022-12-14T14:30:54.352Z,11.30
2022-12-14T14:33:45.410Z,11.30
2022-12-14T14:36:23.680Z,11.30
2022-12-14T14:38:52.898Z,11.30
2022-12-14T14:41:43.446Z,11.30
2022-12-14T14:44:26.189Z,11.30
2022-12-14T14:46:54.328Z,11.20
2022-12-14T14:49:42.661Z,11.20
2022-12-14T14:52:37.747Z,11.20
2022-12-14T14:58:29.231Z,11.20
2022-12-14T15:01:15.696Z,11.20
2022-12-14T15:04:06.357Z,11.20
2022-12-14T15:06:43.181Z,11.20
2022-12-14T15:09:17.515Z,11.20
2022-12-14T15:12:01.328Z,11.20
2022-12-14T15:14:48.246Z,11.20
2022-12-14T15:17:21.794Z,11.20
2022-12-14T15:20:03.311Z,11.20
2022-12-14T15:22:42.704Z,11.20
2022-12-14T15:25:26.748Z,11.20
2022-12-14T15:27:57.893Z,11.20
2022-12-14T15:30:28.151Z,11.20
2022-12-14T15:33:08.545Z,11.30
2022-12-14T15:35:40.271Z,11.30
2022-12-14T15:38:17.137Z,11.30
2022-12-14T15:41:22.912Z,11.30
2022-12-14T15:43:59.787Z,11.30
2022-12-14T15:46:33.834Z,11.30
2022-12-14T15:49:08.911Z,11.30
2022-12-14T15:51:40.302Z,11.20
2022-12-14T15:54:20.247Z,11.20
2022-12-14T15:56:56.932Z,11.30
2022-12-14T15:59:33.484Z,11.30
2022-12-14T16:02:24.147Z,11.30
2022-12-14T16:04:57.231Z,11.30
2022-12-14T16:07:38.704Z,11.30
2022-12-14T16:10:33.185Z,11.30
2022-12-14T16:13:31.011Z,11.30
2022-12-14T16:16:07.256Z,11.40
2022-12-14T16:18:36.227Z,11.40
2022-12-14T16:21:53.613Z,11.40
2022-12-14T16:24:26.037Z,11.40
2022-12-14T16:27:00.189Z,11.40
2022-12-14T16:29:33.584Z,11.50
2022-12-14T16:32:07.352Z,11.50
2022-12-14T16:34:35.533Z,11.40
2022-12-14T16:37:31.718Z,11.40
2022-12-14T16:39:54.242Z,11.40
2022-12-14T16:42:25.024Z,11.40
2022-12-14T16:44:56.850Z,11.30
2022-12-14T16:48:13.828Z,11.30
2022-12-14T16:50:56.930Z,11.30
2022-12-14T16:53:31.742Z,11.30
2022-12-14T16:56:07.647Z,11.30
2022-12-14T16:58:36.642Z,11.30
2022-12-14T17:01:08.122Z,11.30
2022-12-14T17:03:37.895Z,11.30
2022-12-14T17:06:07.705Z,11.30
2022-12-14T17:08:35.822Z,11.40
2022-12-14T17:11:03.915Z,11.40
2022-12-14T17:13:32.610Z,11.40
2022-12-14T17:16:02.278Z,11.40
2022-12-14T17:18:37.598Z,11.50
2022-12-14T17:21:07.232Z,11.50
2022-12-14T17:23:39.022Z,11.50
2022-12-14T17:26:12.510Z,11.40
2022-12-14T17:28:40.667Z,11.50
2022-12-14T17:31:11.221Z,11.50
2022-12-14T17:33:40.088Z,11.60
2022-12-14T17:36:08.235Z,11.50
2022-12-14T17:39:01.361Z,11.50
2022-12-14T17:41:34.256Z,11.50
2022-12-14T17:44:03.233Z,11.60
2022-12-14T17:46:31.681Z,11.60
2022-12-14T17:49:05.983Z,11.60
2022-12-14T17:51:41.743Z,11.50
2022-12-14T17:54:15.694Z,11.50
2022-12-14T17:56:44.912Z,11.50
2022-12-14T17:59:13.291Z,11.60
2022-12-14T18:01:41.769Z,11.60
2022-12-14T18:04:09.923Z,11.50
2022-12-14T18:06:37.923Z,11.50
2022-12-14T18:09:08.060Z,11.60
2022-12-14T18:11:39.186Z,11.60
2022-12-14T18:14:15.591Z,11.60
2022-12-14T18:16:43.580Z,11.60
2022-12-14T18:19:12.283Z,11.60
2022-12-14T18:21:40.370Z,11.70
2022-12-14T18:24:11.890Z,11.90
2022-12-14T18:26:40.230Z,11.90
2022-12-14T18:29:08.239Z,11.90
2022-12-14T18:31:38.090Z,11.80
2022-12-14T18:34:06.685Z,11.80
2022-12-14T18:36:34.603Z,11.90
2022-12-14T18:39:02.531Z,11.90
2022-12-14T18:41:31.281Z,11.90
2022-12-14T18:44:00.700Z,11.90
2022-12-14T18:46:28.727Z,11.90
2022-12-14T18:48:56.699Z,11.90
2022-12-14T18:51:26.770Z,11.90
2022-12-14T18:53:56.763Z,11.90
2022-12-14T18:56:28.241Z,11.90
2022-12-14T18:58:56.443Z,11.90
2022-12-14T19:01:25.135Z,11.80
2022-12-14T19:03:53.504Z,11.90
2022-12-14T19:09:13.611Z,11.90
2022-12-14T19:11:42.402Z,11.90
2022-12-14T19:14:11.307Z,11.90
2022-12-14T19:16:39.436Z,11.90
2022-12-14T19:19:07.559Z,11.90
2022-12-14T19:21:40.520Z,11.90
2022-12-14T19:24:08.755Z,11.90
2022-12-14T19:26:38.793Z,12.00
2022-12-14T19:29:06.814Z,12.00
2022-12-14T19:31:34.907Z,12.00
2022-12-14T19:34:02.976Z,12.00
2022-12-14T19:36:31.793Z,12.00
2022-12-14T19:39:00.639Z,11.90
2022-12-14T19:41:28.864Z,11.90
2022-12-14T19:43:57.983Z,11.80
2022-12-14T19:46:26.660Z,11.80
2022-12-14T19:48:56.070Z,11.80
2022-12-14T19:51:24.282Z,11.80
2022-12-14T19:53:54.167Z,11.90
2022-12-14T19:56:22.546Z,11.80
2022-12-14T19:58:50.650Z,11.80
2022-12-14T20:01:19.398Z,11.80
2022-12-14T20:03:49.288Z,11.80
2022-12-14T20:06:17.593Z,11.90
2022-12-14T20:08:49.289Z,12.00
2022-12-14T20:11:17.644Z,12.00
2022-12-14T20:13:46.153Z,12.00
2022-12-14T20:16:17.841Z,12.00
2022-12-14T20:18:46.706Z,12.00
2022-12-14T20:26:22.816Z,11.90
2022-12-14T20:28:53.545Z,11.90
2022-12-14T20:31:22.754Z,12.00
2022-12-14T20:33:51.051Z,12.10
2022-12-14T20:36:19.465Z,12.10
2022-12-14T20:38:49.135Z,12.20
2022-12-14T20:41:17.538Z,12.20
2022-12-14T20:43:45.822Z,12.00
2022-12-14T20:46:36.958Z,11.90
2022-12-14T20:49:32.921Z,11.90
2022-12-14T20:52:01.392Z,11.90
2022-12-14T20:54:29.556Z,11.90
2022-12-14T20:56:57.808Z,11.90
2022-12-14T20:59:27.622Z,11.90
2022-12-14T21:01:57.022Z,11.90
2022-12-14T21:04:26.051Z,11.80
2022-12-14T21:06:54.147Z,11.80
2022-12-14T21:09:22.140Z,11.80
2022-12-14T21:12:10.428Z,11.90
2022-12-14T21:14:42.704Z,11.80
2022-12-14T21:17:11.153Z,12.00
2022-12-14T21:19:39.982Z,12.00
2022-12-14T21:22:13.068Z,12.00
2022-12-14T21:27:31.306Z,11.80
2022-12-14T21:30:00.701Z,11.90
2022-12-14T21:32:29.507Z,11.90
2022-12-14T21:34:57.681Z,11.90
2022-12-14T21:37:28.602Z,11.90
2022-12-14T21:39:56.940Z,11.90
2022-12-14T21:42:25.405Z,11.90
2022-12-14T21:44:54.383Z,11.90
2022-12-14T21:47:25.641Z,11.90
2022-12-14T21:49:54.815Z,11.80
2022-12-14T21:52:25.169Z,11.80
2022-12-14T21:54:53.182Z,11.80
2022-12-14T21:57:49.469Z,11.90
2022-12-14T22:00:19.287Z,11.80
2022-12-14T22:02:48.096Z,11.80
2022-12-14T22:05:16.763Z,11.80
2022-12-14T22:07:44.976Z,11.80
2022-12-14T22:10:13.188Z,11.80
2022-12-14T22:12:41.138Z,11.80
2022-12-14T22:15:10.563Z,11.80
2022-12-14T22:17:38.480Z,11.80
2022-12-14T22:20:07.430Z,11.80
2022-12-14T22:22:35.338Z,11.80
2022-12-14T22:25:03.947Z,11.80
2022-12-14T22:27:32.273Z,11.80
2022-12-14T22:30:00.671Z,11.70
2022-12-14T22:32:28.704Z,11.70
2022-12-14T22:34:56.642Z,11.70
2022-12-14T22:37:24.912Z,11.70
2022-12-14T22:39:52.775Z,11.70
2022-12-14T22:42:20.771Z,11.70
2022-12-14T22:44:49.206Z,11.70
2022-12-14T22:47:17.685Z,11.80
2022-12-14T22:49:45.868Z,11.70
2022-12-14T22:52:14.062Z,11.70
2022-12-14T22:54:42.305Z,11.70
2022-12-14T22:57:17.348Z,11.70
2022-12-14T23:00:15.944Z,11.70
2022-12-14T23:02:48.096Z,11.80
2022-12-14T23:05:17.014Z,11.70
2022-12-14T23:07:44.984Z,11.70
2022-12-14T23:10:31.268Z,11.60
2022-12-14T23:13:17.587Z,11.60
2022-12-14T23:16:04.327Z,11.60
2022-12-14T23:18:51.182Z,11.50
2022-12-14T23:21:37.794Z,11.60
2022-12-14T23:24:26.088Z,11.60
2022-12-14T23:27:13.402Z,11.60
2022-12-14T23:29:59.918Z,11.60
2022-12-14T23:32:46.290Z,11.60
2022-12-14T23:35:32.575Z,11.60
2022-12-14T23:38:25.537Z,11.60
2022-12-14T23:41:17.936Z,11.80
2022-12-14T23:44:04.725Z,11.70
2022-12-14T23:46:51.661Z,11.70
2022-12-14T23:49:38.016Z,11.60
2022-12-14T23:52:24.492Z,11.60
2022-12-14T23:55:11.479Z,11.60
2022-12-14T23:57:58.739Z,11.60
